• Join FlightAware (Why Join?)
  • Login
  • US Flag 
Rudolph Flight #1: Arrived! 
02:43PM EST


 

Airport Tracker/Info


-or-


 

Live Flight TrackerFlight Track Log ✈ AFR345 ✈ 07-May-2013 ✈ CYUL - LFPG / CDG

Flight Track Log - Related Links

Times and Time Zones

All times are in EDT time to prevent confusion due to time zone crossing. See the AFR345 flight status page for this flight to view local times or setup timezone preferences in your user account.

Time Position Orientation Groundspeed Altitude Reporting Facility
EDT Latitude Longitude Course Direction KTS MPH feet Rate Location/Type
04:58PM 45.5839 -73.4811 35° Northeast  Level Estimated
04:59PM 45.6519 -73.3317 19° North  Level Estimated
05:00PM 45.7197 -73.1820 17° North  Level Estimated
05:04PM 45.7090 -73.6039 19° North  Level FlightAware Approximate
05:05PM 45.8267 -73.5450 19° North  Level FlightAware Approximate
05:06PM 45.9458 -73.4923 17° North  Level FlightAware Approximate
05:06PM 45.4500 -73.7167 21° North 80 92 600  Level Montreal Center
05:07PM 45.4167 -73.7667 226° Southwest 170 196 2,200 1,200 Climbing Montreal Center
05:08PM 45.7053 -73.6057 19° North  Level FlightAware Approximate
05:08PM 45.3667 -73.8500 230° Southwest 240 276 3,000  Level Montreal Center
05:09PM 45.8230 -73.5468 19° North  Level FlightAware Approximate
05:09PM 45.3500 -73.9333 254° West 270 311 5,400  Level Montreal Center
05:10PM 45.9421 -73.4939 17° North  Level FlightAware Approximate
05:10PM 45.4167 -74.0167 319° Northwest 300 345 7,000  Level Montreal Center
05:11PM 46.0606 -73.4427 21° North  Level FlightAware Approximate
05:11PM 45.5000 -74.0833 331° Northwest 300 345 7,400  Level Montreal Center
05:12PM 46.1772 -73.3791 21° North  Level FlightAware Approximate
05:12PM 45.5833 -74.1000 352° North 320 368 9,800  Level Montreal Center
05:18PM 46.1450 -73.4480 352° North 480 552 24,900 2,400 Climbing FlightAware
05:19PM 46.2170 -73.3440 45° Northeast 493 567 26,600 2,100 Climbing FlightAware
05:20PM 46.2650 -73.2280 59° Northeast 504 580 27,900 1,980 Climbing FlightAware
05:20PM 46.3090 -73.1080 62° Northeast 509 586 29,300 2,280 Climbing FlightAware
05:21PM 46.3560 -72.9800 62° Northeast 500 575 31,200 2,220 Climbing FlightAware
05:22PM 46.4010 -72.8600 61° Northeast 500 575 32,500 1,800 Climbing FlightAware
05:22PM 46.4450 -72.7420 62° Northeast 499 574 33,600 1,500 Climbing FlightAware
05:23PM 46.4950 -72.6060 62° Northeast 499 574 34,700 960 Climbing FlightAware
05:24PM 46.5380 -72.4890 62° Northeast 499 574 35,000 180 Climbing FlightAware
05:25PM 46.6030 -72.3130 62° Northeast 498 573 35,000  Level FlightAware
05:26PM 46.6460 -72.1950 62° Northeast 499 574 35,000  Level FlightAware
05:26PM 46.6890 -72.0760 62° Northeast 500 575 35,000  Level FlightAware
05:27PM 46.7360 -71.9440 63° Northeast 499 574 35,000  Level FlightAware
05:28PM 46.7790 -71.8260 62° Northeast 500 575 35,000  Level FlightAware
05:29PM 46.8380 -71.6590 63° Northeast 501 577 35,000  Level FlightAware
05:29PM 46.8860 -71.5250 62° Northeast 501 577 35,000  Level FlightAware
05:30PM 46.9280 -71.4050 63° Northeast 502 578 35,000  Level FlightAware
05:31PM 46.9760 -71.2690 63° Northeast 502 578 35,000  Level FlightAware
05:31PM 47.0180 -71.1480 63° Northeast 500 575 35,000  Level FlightAware
05:32PM 47.0600 -71.0290 63° Northeast 500 575 35,000  Level FlightAware
05:33PM 47.1070 -70.8920 63° Northeast 501 577 35,000  Level FlightAware
05:33PM 47.1480 -70.7720 63° Northeast 501 577 35,000  Level FlightAware
05:34PM 47.1950 -70.6350 63° Northeast 503 579 35,000  Level FlightAware
05:35PM 47.2360 -70.5150 63° Northeast 505 581 35,000  Level FlightAware
05:36PM 47.2790 -70.3900 63° Northeast 505 581 35,000  Level FlightAware
05:36PM 47.3250 -70.2530 64° Northeast 507 583 35,000  Level FlightAware
05:37PM 47.3670 -70.1290 63° Northeast 508 585 35,000  Level FlightAware
05:38PM 47.4080 -70.0050 64° Northeast 510 587 35,000  Level FlightAware
05:38PM 47.4550 -69.8650 64° Northeast 512 589 35,000  Level FlightAware
05:39PM 47.4960 -69.7400 64° Northeast 513 590 35,000  Level FlightAware
05:40PM 47.5430 -69.5980 64° Northeast 513 590 35,000  Level FlightAware
05:40PM 47.5820 -69.4790 64° Northeast 514 592 35,000  Level FlightAware
05:41PM 47.6250 -69.3470 64° Northeast 516 594 35,000  Level FlightAware
05:42PM 47.6720 -69.2020 64° Northeast 517 595 35,000  Level FlightAware
05:43PM 47.7110 -69.0810 64° Northeast 519 597 35,000  Level FlightAware
05:43PM 47.7530 -68.9260 68° East 524 603 35,000  Level FlightAware
05:44PM 47.7910 -68.7500 72° East 527 606 35,000  Level FlightAware
05:45PM 47.8160 -68.6320 72° East 527 606 35,000  Level FlightAware
05:46PM 47.8420 -68.5150 72° East 527 606 35,000  Level FlightAware
05:46PM 47.8670 -68.3970 72° East 527 606 35,000  Level FlightAware
05:47PM 47.8990 -68.2500 72° East 527 606 35,000  Level FlightAware
05:48PM 47.9250 -68.1330 72° East 527 606 35,000  Level FlightAware
05:48PM 47.9510 -68.0150 72° East 527 606 35,000  Level FlightAware
05:49PM 47.9760 -67.8970 72° East 527 606 35,000  Level FlightAware
05:50PM 48.0020 -67.7790 72° East 527 606 35,000  Level FlightAware
05:50PM 48.0270 -67.6620 72° East 527 606 35,000  Level FlightAware
05:51PM 48.0590 -67.5140 72° East 527 606 35,000  Level FlightAware
05:52PM 48.0850 -67.3960 72° East 527 606 35,000  Level FlightAware
05:53PM 48.1110 -67.2780 72° East 527 606 35,000  Level FlightAware
05:53PM 48.1430 -67.1300 72° East 527 606 35,000  Level FlightAware
05:54PM 48.1667 -66.7500 72° East 540 621 35,000  Level Gander Center
05:54PM 48.2000 -66.6000 72° East 520 598 35,000  Level Moncton Center
05:55PM 48.2333 -66.3833 77° East 540 621 35,000  Level Moncton Center
05:56PM 48.2667 -66.1500 78° East 540 621 35,000  Level Moncton Center
05:57PM 48.3167 -65.9333 71° East 530 610 35,000  Level Moncton Center
05:58PM 48.3667 -65.7333 69° East 540 621 35,000  Level Moncton Center
05:59PM 48.4000 -65.5333 76° East 540 621 35,000  Level Moncton Center
06:00PM 48.4333 -65.2833 79° East 540 621 35,000  Level Moncton Center
06:01PM 48.4667 -65.0833 76° East 540 621 35,000  Level Moncton Center
06:02PM 48.5000 -64.8500 78° East 540 621 35,000  Level Moncton Center
06:03PM 48.5333 -64.6167 78° East 540 621 35,000  Level Moncton Center
06:04PM 48.5667 -64.4167 76° East 530 610 35,000  Level Moncton Center
06:05PM 48.6167 -64.2000 71° East 540 621 35,000 180 Level Moncton Center
06:06PM 48.6500 -63.9667 78° East 540 621 35,400 840 Climbing Moncton Center
06:07PM 48.6833 -63.7667 76° East 540 621 36,700 900 Climbing Moncton Center
06:08PM 48.7167 -63.5667 76° East 540 621 37,100 120 Climbing Gander Center
06:09PM 48.7500 -63.3000 79° East 540 621 37,000 -60 Descending Moncton Center
06:10PM 48.7833 -63.0833 77° East 550 633 37,000  Level Moncton Center
06:11PM 48.8333 -62.8500 72° East 540 621 37,000  Level Moncton Center
06:12PM 48.8667 -62.6333 77° East 540 621 37,000  Level Moncton Center
06:13PM 48.8833 -62.4333 83° East 540 621 37,000  Level Gander Center
06:14PM 48.9167 -62.2000 78° East 540 621 37,000  Level Moncton Center
06:15PM 48.9500 -61.9667 78° East 540 621 37,000  Level Gander Center
06:16PM 48.9833 -61.7667 76° East 550 633 37,000  Level Gander Center
06:17PM 49.0167 -61.5167 78° East 550 633 37,000  Level Moncton Center
06:18PM 49.0333 -61.3000 83° East 550 633 37,000  Level Gander Center
06:19PM 49.0667 -61.0500 78° East 550 633 37,000  Level Moncton Center
06:20PM 49.1000 -60.8167 78° East 550 633 37,000  Level Moncton Center
06:26PM 49.2640 -59.6450 78° East 549 632 37,100  Climbing FlightAware
06:26PM 49.2850 -59.4710 79° East 549 632 37,000  Descending FlightAware
06:27PM 49.3030 -59.3140 80° East 550 633 37,100  Climbing FlightAware
06:28PM 49.3200 -59.1690 80° East 549 632 37,000  Descending FlightAware
06:28PM 49.3400 -58.9930 80° East 549 632 37,100  Climbing FlightAware
06:29PM 49.3570 -58.8420 80° East 549 632 37,000 -120 Descending FlightAware
06:30PM 49.3760 -58.6670 80° East 549 632 37,000  Level FlightAware
06:30PM 49.3990 -58.5140 77° East 549 632 37,000 60 Level FlightAware
06:31PM 49.4290 -58.3760 71° East 549 632 37,100 60 Climbing FlightAware
06:32PM 49.4690 -58.2000 71° East 549 632 37,100 -120 Level FlightAware
06:33PM 49.5020 -58.0530 71° East 550 633 37,000 -120 Descending FlightAware
06:33PM 49.5390 -57.8890 71° East 549 632 37,000 60 Level FlightAware
06:34PM 49.5720 -57.7410 71° East 549 632 37,100  Climbing FlightAware
06:35PM 49.6080 -57.5790 71° East 549 632 37,000 -120 Descending FlightAware
06:35PM 49.6400 -57.4350 71° East 549 632 37,000  Level FlightAware
06:36PM 49.6730 -57.2880 71° East 548 631 37,000  Level FlightAware
06:37PM 49.7110 -57.1100 72° East 549 632 37,000  Level FlightAware
06:37PM 49.7440 -56.9620 71° East 549 632 37,000  Level FlightAware
06:38PM 49.7760 -56.8130 72° East 550 633 37,000  Level FlightAware
06:39PM 49.8120 -56.6450 72° East 550 633 37,000  Level FlightAware
06:40PM 49.8430 -56.4970 72° East 553 636 37,000 60 Level FlightAware
06:40PM 49.8780 -56.3280 72° East 552 635 37,100  Climbing FlightAware
06:41PM 49.9100 -56.1770 72° East 554 638 37,000 -120 Descending FlightAware
06:41PM 49.9290 -56.0830 73° East 554 638 37,000  Level FlightAware
06:42PM 49.9640 -55.9120 72° East 555 639 37,000  Level FlightAware
06:43PM 49.9950 -55.7610 72° East 555 639 37,000  Level FlightAware
06:44PM 50.0300 -55.5890 72° East 556 640 37,000  Level FlightAware
06:44PM 50.0600 -55.4390 73° East 556 640 37,000  Level FlightAware
06:45PM 50.0950 -55.2650 73° East 554 638 37,000  Level FlightAware
06:46PM 50.1250 -55.1130 73° East 554 638 37,000  Level FlightAware
06:46PM 50.1530 -54.9670 73° East 553 636 37,000  Level FlightAware
06:47PM 50.1880 -54.7910 73° East 552 635 37,000  Level FlightAware
06:48PM 50.2170 -54.6380 73° East 550 633 37,000  Level FlightAware
06:48PM 50.2460 -54.4860 73° East 548 631 37,000  Level FlightAware
06:49PM 50.2790 -54.3160 73° East 548 631 37,000  Level FlightAware
06:50PM 50.3070 -54.1640 74° East 547 629 37,000  Level FlightAware
06:51PM 50.3380 -53.9950 74° East 547 629 37,000  Level FlightAware
06:51PM 50.3670 -53.8420 73° East 547 629 37,000  Level FlightAware
06:52PM 50.3930 -53.6980 74° East 546 628 37,000  Level FlightAware
06:53PM 50.4250 -53.5220 74° East 544 626 37,000  Level FlightAware
06:53PM 50.4500 -53.3840 74° East 544 626 37,000  Level FlightAware
06:54PM 50.4780 -53.2280 74° East 544 626 37,000  Level FlightAware
06:55PM 50.5010 -53.0930 75° East 543 625 37,000  Level FlightAware
06:55PM 50.5280 -52.9450 74° East 543 625 37,000  Level FlightAware
06:56PM 50.5620 -52.7470 75° East 37,000  Level FlightAware
06:57PM 50.5890 -52.5880 75° East 538 619 37,000  Level FlightAware
06:57PM 50.6110 -52.4670 74° East 538 619 37,000  Level FlightAware
06:58PM 50.6400 -52.3070 74° East 538 619 37,000  Level FlightAware
06:59PM 50.6630 -52.1790 74° East 538 619 37,000  Level FlightAware
07:00PM 50.6860 -52.0500 74° East 538 619 37,000  Level FlightAware
07:00PM 50.7100 -51.9220 73° East 538 619 37,000  Level FlightAware
07:01PM 50.7390 -51.7610 74° East 538 619 37,000  Level FlightAware
07:02PM 50.7620 -51.6330 74° East 538 619 37,000  Level FlightAware
07:02PM 50.7860 -51.5040 74° East 538 619 37,000  Level FlightAware
07:03PM 50.8090 -51.3750 74° East 538 619 37,000  Level FlightAware
07:04PM 50.8320 -51.2460 74° East 538 619 37,000  Level FlightAware
07:04PM 50.8550 -51.1180 74° East 538 619 37,000  Level FlightAware
07:05PM 50.8850 -50.9560 74° East 538 619 37,000  Level FlightAware
07:06PM 50.9080 -50.8280 74° East 538 619 37,000  Level FlightAware
07:07PM 50.9310 -50.6980 74° East 538 619 37,000  Level FlightAware
07:07PM 50.9667 -50.1167 74° East 530 610 37,000  Level Moncton Center
07:08PM 50.9833 -49.9000 83° East 530 610 37,000  Level Moncton Center
07:09PM 51.0167 -49.6667 77° East 540 621 37,000  Level Moncton Center
07:10PM 51.0167 -49.5833 90° East 530 610 37,000  Level Gander Center
07:11PM 51.0667 -49.3500 71° East 530 610 37,000  Level Gander Center
07:12PM 51.1000 -49.1500 75° East 540 621 37,000  Level Gander Center
07:14PM 51.1392 -48.8712 77° East  Level FlightAware Approximate
07:21PM 51.3388 -47.3623 77° East  Level FlightAware Approximate
07:22PM 51.3657 -47.1456 79° East  Level FlightAware Approximate
07:23PM 51.3922 -46.9288 79° East  Level FlightAware Approximate
07:24PM 51.4183 -46.7116 79° East  Level FlightAware Approximate
07:25PM 51.4440 -46.4943 79° East  Level FlightAware Approximate
07:26PM 51.4692 -46.2765 80° East  Level FlightAware Approximate
07:27PM 51.4929 -46.0583 80° East  Level FlightAware Approximate
07:28PM 51.5162 -45.8399 80° East  Level FlightAware Approximate
07:29PM 51.5391 -45.6213 80° East  Level FlightAware Approximate
07:30PM 51.5615 -45.4024 81° East  Level FlightAware Approximate
07:31PM 51.5836 -45.1833 81° East  Level FlightAware Approximate
07:32PM 51.6052 -44.9640 81° East  Level FlightAware Approximate
07:33PM 51.6265 -44.7445 81° East  Level FlightAware Approximate
07:34PM 51.6473 -44.5248 81° East  Level FlightAware Approximate
07:35PM 51.6677 -44.3049 81° East  Level FlightAware Approximate
07:36PM 51.6877 -44.0848 82° East  Level FlightAware Approximate
07:37PM 51.7073 -43.8645 82° East  Level FlightAware Approximate
07:38PM 51.7265 -43.6441 82° East  Level FlightAware Approximate
07:39PM 51.7453 -43.4234 82° East  Level FlightAware Approximate
07:40PM 51.7636 -43.2025 82° East  Level FlightAware Approximate
07:41PM 51.7816 -42.9815 82° East  Level FlightAware Approximate
07:42PM 51.7991 -42.7603 83° East  Level FlightAware Approximate
07:43PM 51.8162 -42.5390 83° East  Level FlightAware Approximate
07:44PM 51.8344 -42.3177 82° East  Level FlightAware Approximate
07:45PM 51.8523 -42.0964 82° East  Level FlightAware Approximate
07:46PM 51.8697 -41.8748 83° East  Level FlightAware Approximate
07:47PM 51.8867 -41.6530 83° East  Level FlightAware Approximate
07:48PM 51.9033 -41.4311 83° East  Level FlightAware Approximate
07:49PM 51.9195 -41.2091 83° East  Level FlightAware Approximate
07:50PM 51.9352 -40.9869 83° East  Level FlightAware Approximate
07:51PM 51.9506 -40.7645 84° East  Level FlightAware Approximate
07:52PM 51.9655 -40.5420 84° East  Level FlightAware Approximate
07:53PM 51.9800 -40.3193 84° East  Level FlightAware Approximate
07:54PM 51.9940 -40.0965 84° East  Level FlightAware Approximate
07:55PM 52.0053 -39.8732 86° East  Level FlightAware Approximate
07:56PM 52.0144 -39.6496 86° East  Level FlightAware Approximate
07:57PM 52.0230 -39.4259 86° East  Level FlightAware Approximate
07:58PM 52.0312 -39.2021 87° East  Level FlightAware Approximate
07:59PM 52.0389 -38.9782 87° East  Level FlightAware Approximate
08:00PM 52.0462 -38.7543 87° East  Level FlightAware Approximate
08:01PM 52.0532 -38.5303 87° East  Level FlightAware Approximate
08:02PM 52.0597 -38.3062 87° East  Level FlightAware Approximate
08:03PM 52.0657 -38.0820 87° East  Level FlightAware Approximate
08:04PM 52.0714 -37.8578 88° East  Level FlightAware Approximate
08:05PM 52.0766 -37.6336 88° East  Level FlightAware Approximate
08:06PM 52.0814 -37.4093 88° East  Level FlightAware Approximate
08:07PM 52.0857 -37.1849 88° East  Level FlightAware Approximate
08:08PM 52.0897 -36.9605 88° East  Level FlightAware Approximate
08:09PM 52.0932 -36.7361 88° East  Level FlightAware Approximate
08:10PM 52.0963 -36.5116 89° East  Level FlightAware Approximate
08:11PM 52.0989 -36.2871 89° East  Level FlightAware Approximate
08:12PM 52.1012 -36.0626 89° East  Level FlightAware Approximate
08:13PM 52.1030 -35.8381 89° East  Level FlightAware Approximate
08:14PM 52.1043 -35.6135 89° East  Level FlightAware Approximate
08:15PM 52.1053 -35.3889 90° East  Level FlightAware Approximate
08:16PM 52.1058 -35.1643 90° East  Level FlightAware Approximate
08:17PM 52.1059 -34.9398 90° East  Level FlightAware Approximate
08:18PM 52.1056 -34.7152 90° East  Level FlightAware Approximate
08:19PM 52.1048 -34.4906 90° East  Level FlightAware Approximate
08:20PM 52.1037 -34.2661 90° East  Level FlightAware Approximate
08:21PM 52.1021 -34.0415 91° East  Level FlightAware Approximate
08:22PM 52.1000 -33.8170 91° East  Level FlightAware Approximate
08:23PM 52.0976 -33.5925 91° East  Level FlightAware Approximate
08:24PM 52.0947 -33.3680 91° East  Level FlightAware Approximate
08:25PM 52.0914 -33.1435 91° East  Level FlightAware Approximate
08:26PM 52.0876 -32.9191 91° East  Level FlightAware Approximate
08:27PM 52.0835 -32.6948 92° East  Level FlightAware Approximate
08:28PM 52.0789 -32.4704 92° East  Level FlightAware Approximate
08:29PM 52.0738 -32.2462 92° East  Level FlightAware Approximate
08:30PM 52.0684 -32.0219 92° East  Level FlightAware Approximate
08:31PM 52.0625 -31.7978 92° East  Level FlightAware Approximate
08:32PM 52.0562 -31.5736 93° East  Level FlightAware Approximate
08:33PM 52.0495 -31.3496 93° East  Level FlightAware Approximate
08:34PM 52.0424 -31.1256 93° East  Level FlightAware Approximate
08:35PM 52.0348 -30.9017 93° East  Level FlightAware Approximate
08:36PM 52.0268 -30.6779 93° East  Level FlightAware Approximate
08:37PM 52.0184 -30.4541 93° East  Level FlightAware Approximate
08:38PM 52.0096 -30.2305 94° East  Level FlightAware Approximate
08:39PM 52.0003 -30.0069 94° East  Level FlightAware Approximate
08:40PM 51.9875 -29.7839 95° East  Level FlightAware Approximate
08:41PM 51.9742 -29.5609 95° East  Level FlightAware Approximate
08:42PM 51.9605 -29.3382 96° East  Level FlightAware Approximate
08:43PM 51.9463 -29.1155 96° East  Level FlightAware Approximate
08:44PM 51.9317 -28.8931 96° East  Level FlightAware Approximate
08:45PM 51.9168 -28.6707 96° East  Level FlightAware Approximate
08:46PM 51.9013 -28.4485 96° East  Level FlightAware Approximate
08:47PM 51.8855 -28.2265 97° East  Level FlightAware Approximate
08:48PM 51.8693 -28.0046 97° East  Level FlightAware Approximate
08:49PM 51.8526 -27.7829 97° East  Level FlightAware Approximate
08:50PM 51.8355 -27.5613 97° East  Level FlightAware Approximate
08:51PM 51.8180 -27.3400 97° East  Level FlightAware Approximate
08:52PM 51.8001 -27.1187 97° East  Level FlightAware Approximate
08:53PM 51.7818 -26.8977 98° East  Level FlightAware Approximate
08:54PM 51.7631 -26.6769 98° East  Level FlightAware Approximate
08:55PM 51.7439 -26.4562 98° East  Level FlightAware Approximate
08:56PM 51.7244 -26.2357 98° East  Level FlightAware Approximate
08:57PM 51.7044 -26.0154 98° East  Level FlightAware Approximate
08:58PM 51.6840 -25.7953 98° East  Level FlightAware Approximate
08:59PM 51.6632 -25.5755 99° East  Level FlightAware Approximate
09:00PM 51.6420 -25.3558 99° East  Level FlightAware Approximate
09:01PM 51.6204 -25.1363 99° East  Level FlightAware Approximate
09:02PM 51.5983 -24.9170 99° East  Level FlightAware Approximate
09:03PM 51.5756 -24.6981 99° East  Level FlightAware Approximate
09:04PM 51.5524 -24.4793 100° East  Level FlightAware Approximate
09:05PM 51.5288 -24.2608 100° East  Level FlightAware Approximate
09:06PM 51.5048 -24.0425 100° East  Level FlightAware Approximate
09:07PM 51.4804 -23.8245 100° East  Level FlightAware Approximate
09:08PM 51.4556 -23.6067 100° East  Level FlightAware Approximate
09:09PM 51.4304 -23.3891 100° East  Level FlightAware Approximate
09:10PM 51.4048 -23.1717 101° East  Level FlightAware Approximate
09:11PM 51.3788 -22.9547 101° East  Level FlightAware Approximate
09:12PM 51.3524 -22.7378 101° East  Level FlightAware Approximate
09:13PM 51.3256 -22.5212 101° East  Level FlightAware Approximate
09:14PM 51.2994 -22.3046 101° East  Level FlightAware Approximate
09:15PM 51.2734 -22.0880 101° East  Level FlightAware Approximate
09:16PM 51.2469 -21.8717 101° East  Level FlightAware Approximate
09:17PM 51.2201 -21.6556 101° East  Level FlightAware Approximate
09:18PM 51.1928 -21.4397 101° East  Level FlightAware Approximate
09:19PM 51.1652 -21.2242 101° East  Level FlightAware Approximate
09:20PM 51.1371 -21.0089 102° East  Level FlightAware Approximate
09:21PM 51.1087 -20.7938 102° East  Level FlightAware Approximate
09:22PM 51.0799 -20.5790 102° East  Level FlightAware Approximate
09:23PM 51.0506 -20.3645 102° East  Level FlightAware Approximate
09:24PM 51.0210 -20.1503 102° East  Level FlightAware Approximate
09:25PM 50.9976 -19.9348 93° East  Level FlightAware Approximate
09:26PM 50.9894 -19.7161 93° East  Level FlightAware Approximate
09:27PM 50.9808 -19.4974 93° East  Level FlightAware Approximate
09:28PM 50.9718 -19.2788 94° East  Level FlightAware Approximate
09:29PM 50.9623 -19.0603 94° East  Level FlightAware Approximate
09:30PM 50.9525 -18.8418 94° East  Level FlightAware Approximate
09:31PM 50.9422 -18.6235 94° East  Level FlightAware Approximate
09:32PM 50.9316 -18.4053 94° East  Level FlightAware Approximate
09:33PM 50.9205 -18.1871 95° East  Level FlightAware Approximate
09:34PM 50.9091 -17.9691 95° East  Level FlightAware Approximate
09:35PM 50.8972 -17.7512 95° East  Level FlightAware Approximate
09:36PM 50.8849 -17.5334 95° East  Level FlightAware Approximate
09:37PM 50.8722 -17.3157 95° East  Level FlightAware Approximate
09:38PM 50.8591 -17.0981 95° East  Level FlightAware Approximate
09:39PM 50.8461 -16.8806 95° East  Level FlightAware Approximate
09:40PM 50.8338 -16.6631 95° East  Level FlightAware Approximate
09:41PM 50.8210 -16.4456 95° East  Level FlightAware Approximate
09:42PM 50.8078 -16.2283 95° East  Level FlightAware Approximate
09:43PM 50.7942 -16.0111 96° East  Level FlightAware Approximate
09:44PM 50.7802 -15.7941 96° East  Level FlightAware Approximate
09:45PM 50.7658 -15.5772 96° East  Level FlightAware Approximate
09:46PM 50.7510 -15.3604 96° East  Level FlightAware Approximate
09:47PM 50.7358 -15.1437 96° East  Level FlightAware Approximate
09:48PM 50.7202 -14.9272 96° East  Level FlightAware Approximate
09:49PM 50.7042 -14.7108 97° East  Level FlightAware Approximate
09:50PM 50.6878 -14.4946 97° East  Level FlightAware Approximate
09:51PM 50.6710 -14.2786 97° East  Level FlightAware Approximate
09:52PM 50.6538 -14.0626 97° East  Level FlightAware Approximate
09:53PM 50.6362 -13.8469 97° East  Level FlightAware Approximate
09:54PM 50.6182 -13.6313 97° East  Level FlightAware Approximate
09:55PM 50.5998 -13.4159 98° East  Level FlightAware Approximate
09:56PM 50.5811 -13.2006 98° East  Level FlightAware Approximate
09:57PM 50.5619 -12.9856 98° East  Level FlightAware Approximate
09:58PM 50.5423 -12.7707 98° East  Level FlightAware Approximate
09:59PM 50.5223 -12.5560 98° East  Level FlightAware Approximate
10:00PM 50.5019 -12.3414 98° East  Level FlightAware Approximate
10:01PM 50.4812 -12.1271 99° East  Level FlightAware Approximate
10:02PM 50.4600 -11.9129 99° East  Level FlightAware Approximate
10:03PM 50.4385 -11.6989 99° East  Level FlightAware Approximate
10:04PM 50.4165 -11.4852 99° East  Level FlightAware Approximate
10:05PM 50.3942 -11.2716 99° East  Level FlightAware Approximate
10:05PM 50.4560 -9.7380 99° East 513 590 37,000  Level FlightAware
10:06PM 50.3715 -11.0583 99° East  Level FlightAware Approximate
10:06PM 50.4380 -9.5920 101° East 517 595 37,000  Level FlightAware
10:06PM 50.4130 -9.3950 101° East 518 596 37,000  Level FlightAware
10:07PM 50.3880 -9.1990 101° East 518 596 37,000 -840 Level FlightAware
10:08PM 50.3595 -8.9847 101° East 490 564 35,500 -1,260 Descending FlightAware UK
10:09PM 50.3507 -8.9185 102° East 492 566 35,500 3,000 Level FlightAware UK
10:09PM 50.3470 -8.8790 102° East 521 600 37,000  Climbing FlightAware
10:09PM 50.3379 -8.8074 102° East 494 568 35,500 -2,520 Descending FlightAware UK
10:09PM 50.3369 -8.7392 91° East 494 568 35,500  Level FlightAware UK
10:10PM 50.3313 -8.6719 97° East 492 566 35,500 2,640 Level FlightAware UK
10:10PM 50.3260 -8.6200 99° East 521 600 37,000  Climbing FlightAware
10:10PM 50.3248 -8.6050 99° East 492 566 35,500 -4,500 Descending FlightAware UK
10:10PM 50.3172 -8.5383 99° East 490 564 35,500  Level FlightAware UK
10:11PM 50.3089 -8.4722 101° East 490 564 35,500  Level FlightAware UK
10:11PM 50.3001 -8.4061 102° East 490 564 35,500 2,760 Level FlightAware UK
10:11PM 50.2940 -8.3630 102° East 518 596 37,000  Climbing FlightAware
10:11PM 50.2854 -8.2957 102° East 492 566 35,500 -2,700 Descending FlightAware UK
10:12PM 50.2763 -8.2297 102° East 492 566 35,500  Level FlightAware UK
10:12PM 50.2671 -8.1637 102° East 490 564 35,500  Level FlightAware UK
10:12PM 50.2577 -8.0971 102° East 490 564 35,500 4,980 Level FlightAware UK
10:12PM 50.2590 -8.1070 102° East 518 596 37,000  Climbing FlightAware
10:13PM 50.2488 -8.0310 102° East 492 566 35,500 -2,520 Descending FlightAware UK
10:13PM 50.2404 -7.9649 101° East 490 564 35,500  Level FlightAware UK
10:13PM 50.2321 -7.8987 101° East 490 564 35,500 2,640 Level FlightAware UK
10:13PM 50.2260 -7.8480 101° East 519 597 37,000  Climbing FlightAware
10:13PM 50.2237 -7.8326 101° East 490 564 35,500 -4,500 Descending FlightAware UK
10:14PM 50.2154 -7.7663 101° East 492 566 35,500  Level FlightAware UK
10:14PM 50.2069 -7.7001 101° East 490 564 35,500  Level FlightAware UK
10:14PM 50.1982 -7.6341 102° East 490 564 35,500 2,760 Level FlightAware UK
10:15PM 50.1920 -7.5910 102° East 519 597 37,000  Climbing FlightAware
10:15PM 50.1833 -7.5240 102° East 492 566 35,500 -2,700 Descending FlightAware UK
10:15PM 50.1742 -7.4580 102° East 490 564 35,500  Level FlightAware UK
10:15PM 50.1651 -7.3911 102° East 490 564 35,500  Level FlightAware UK
10:16PM 50.1562 -7.3257 102° East 490 564 35,500  Level FlightAware UK
10:16PM 50.1471 -7.2595 102° East 490 564 35,500  Level FlightAware UK
10:16PM 50.1382 -7.1932 102° East 490 564 35,500 4,080 Level FlightAware UK
10:16PM 50.1380 -7.1940 102° East 522 601 37,000  Climbing FlightAware
10:17PM 50.1259 -7.1041 102° East 490 564 35,500  Descending FlightAware UK
10:17PM 50.1210 -7.0690 102° East 524 603 37,000  Climbing FlightAware
10:17PM 50.1167 -7.0385 102° East 490 564 35,500 -6,000 Descending FlightAware UK
10:17PM 50.1106 -6.9944 102° East 492 566 35,500  Level FlightAware UK
10:18PM 50.1012 -6.9274 102° East 492 566 35,500 2,520 Level FlightAware UK
10:18PM 50.0960 -6.8870 102° East 525 604 37,000  Climbing FlightAware
10:18PM 50.0919 -6.8612 102° East 494 568 35,500 -4,740 Descending FlightAware UK
10:18PM 50.0825 -6.7949 102° East 494 568 35,500  Level FlightAware UK
10:18PM 50.0731 -6.7287 102° East 494 568 35,500  Level FlightAware UK
10:19PM 50.0639 -6.6624 102° East 492 566 35,500 4,980 Level FlightAware UK
10:19PM 50.0670 -6.6800 102° East 524 603 37,000  Climbing FlightAware
10:19PM 50.0546 -6.5962 102° East 496 571 35,500 -2,520 Descending FlightAware UK
10:19PM 50.0451 -6.5294 103° East 494 568 35,500 4,080 Level FlightAware UK
10:19PM 50.0460 -6.5360 103° East 524 603 37,000  Climbing FlightAware
10:20PM 50.0324 -6.4414 103° East 494 568 35,500 -2,400 Descending FlightAware UK
10:20PM 50.0226 -6.3747 103° East 494 568 35,500 3,600 Level FlightAware UK
10:20PM 50.0220 -6.3710 103° East 524 603 37,000  Climbing FlightAware
10:20PM 50.0099 -6.2877 103° East 492 566 35,500 -2,580 Descending FlightAware UK
10:21PM 50.0002 -6.2218 103° East 492 566 35,500  Level FlightAware UK
10:21PM 49.9907 -6.1551 102° East 492 566 35,500 4,500 Level FlightAware UK
10:21PM 49.9930 -6.1710 102° East 524 603 37,000  Climbing FlightAware
10:21PM 49.9810 -6.0900 102° East 492 566 35,500 -2,700 Descending FlightAware UK
10:22PM 49.9712 -6.0241 103° East 494 568 35,500 3,060 Level FlightAware UK
10:22PM 49.9680 -6.0040 103° East 524 603 37,000  Climbing FlightAware
10:22PM 49.9548 -5.9137 103° East 496 571 35,500 -2,460 Descending FlightAware UK
10:22PM 49.9450 -5.8486 103° East 496 571 35,500 4,560 Level FlightAware UK
10:22PM 49.9470 -5.8600 103° East 523 602 37,100  Climbing FlightAware
10:23PM 49.9351 -5.7821 103° East 492 566 35,500 -2,940 Descending FlightAware UK
10:23PM 49.9251 -5.7164 103° East 494 568 35,500  Level FlightAware UK
10:23PM 49.9154 -5.6508 103° East 494 568 35,500  Level FlightAware UK
10:24PM 49.9054 -5.5846 103° East 494 568 35,500 4,680 Level FlightAware UK
10:24PM 49.9080 -5.6050 103° East 521 600 37,000  Climbing FlightAware
10:24PM 49.8954 -5.5199 103° East 492 566 35,500 -2,580 Descending FlightAware UK
10:24PM 49.8852 -5.4546 104° East 492 566 35,500 4,980 Level FlightAware UK
10:24PM 49.8880 -5.4750 104° East 521 600 37,000  Climbing FlightAware
10:25PM 49.8750 -5.3893 104° East 492 566 35,500 -2,460 Descending FlightAware UK
10:25PM 49.8648 -5.3231 103° East 494 568 35,500 3,000 Level FlightAware UK
10:25PM 49.8600 -5.2940 103° East 521 600 37,100  Climbing FlightAware
10:25PM 49.8480 -5.2148 103° East 494 568 35,500 -2,760 Descending FlightAware UK
10:26PM 49.8378 -5.1486 103° East 494 568 35,500  Level FlightAware UK
10:26PM 49.8278 -5.0840 104° East 494 568 35,500 4,500 Level FlightAware UK
10:26PM 49.8300 -5.0960 104° East 520 598 37,000  Climbing FlightAware
10:26PM 49.8174 -5.0188 104° East 494 568 35,500 -2,760 Descending FlightAware UK
10:27PM 49.8071 -4.9537 104° East 492 566 35,500 3,600 Level FlightAware UK
10:27PM 49.8060 -4.9490 104° East 519 597 37,000  Climbing FlightAware
10:27PM 49.7934 -4.8678 104° East 494 568 35,500 -2,580 Descending FlightAware UK
10:27PM 49.7831 -4.8029 104° East 494 568 35,500 3,180 Level FlightAware UK
10:27PM 49.7810 -4.7890 104° East 518 596 37,000  Climbing FlightAware
10:28PM 49.7655 -4.6934 104° East 494 568 35,500 -2,400 Descending FlightAware UK
10:28PM 49.7567 -4.6288 102° East 492 566 35,500 2,640 Level FlightAware UK
10:28PM 49.7540 -4.5890 97° East 521 600 37,000  Climbing FlightAware
10:28PM 49.7514 -4.5613 97° East 492 566 35,500 -4,500 Descending FlightAware UK
10:29PM 49.7456 -4.4949 97° East 492 566 35,500  Level FlightAware UK
10:29PM 49.7403 -4.4282 97° East 494 568 35,500 3,600 Level FlightAware UK
10:29PM 49.7400 -4.4230 97° East 522 601 37,000  Climbing FlightAware
10:29PM 49.7336 -4.3386 97° East 492 566 35,500 -2,580 Descending FlightAware UK
10:30PM 49.7286 -4.2711 96° East 490 564 35,500 3,900 Level FlightAware UK
10:30PM 49.7290 -4.2780 96° East 523 602 37,000  Climbing FlightAware
10:30PM 49.7219 -4.1814 96° East 490 564 35,500 -2,460 Descending FlightAware UK
10:30PM 49.7172 -4.1145 96° East 490 564 35,500  Level FlightAware UK
10:31PM 49.7122 -4.0475 97° East 490 564 35,500 2,700 Level FlightAware UK
10:31PM 49.7100 -4.0140 97° East 525 604 37,000  Climbing FlightAware
10:31PM 49.7039 -3.9375 97° East 494 568 35,500 -2,760 Descending FlightAware UK
10:31PM 49.6988 -3.8698 97° East 492 566 35,500  Level FlightAware UK
10:32PM 49.6936 -3.8029 97° East 492 566 35,500  Level FlightAware UK
10:32PM 49.6884 -3.7353 97° East 492 566 35,500 4,680 Level FlightAware UK
10:32PM 49.6900 -3.7550 97° East 524 603 37,000  Climbing FlightAware
10:32PM 49.6832 -3.6683 97° East 492 566 35,500 -2,580 Descending FlightAware UK
10:33PM 49.6781 -3.6007 97° East 494 568 35,500 3,180 Level FlightAware UK
10:33PM 49.6760 -3.5710 97° East 524 603 37,000  Climbing FlightAware
10:33PM 49.6693 -3.4902 97° East 492 566 35,500 -2,400 Descending FlightAware UK
10:33PM 49.6639 -3.4228 97° East 492 566 35,500 4,500 Level FlightAware UK
10:33PM 49.6640 -3.4240 97° East 524 603 37,000  Climbing FlightAware
10:34PM 49.6584 -3.3546 97° East 492 566 35,500 -2,700 Descending FlightAware UK
10:34PM 49.6531 -3.2894 97° East 492 566 35,500 3,900 Level FlightAware UK
10:34PM 49.6520 -3.2720 97° East 525 604 37,000  Climbing FlightAware
10:34PM 49.6457 -3.2006 97° East 490 564 35,500 -2,520 Descending FlightAware UK
10:35PM 49.6402 -3.1340 97° East 490 564 35,500 3,300 Level FlightAware UK
10:35PM 49.6390 -3.1130 97° East 525 604 37,000  Climbing FlightAware
10:35PM 49.6329 -3.0443 97° East 490 564 35,500  Descending FlightAware UK
10:35PM 49.6290 -2.9995 97° East 525 604 37,000  Climbing FlightAware ADS-B
10:36PM 49.6233 -2.9317 97° East 490 564 35,500 -2,520 Descending FlightAware UK
10:36PM 49.6177 -2.8657 97° East 490 564 35,500 4,680 Level FlightAware UK
10:36PM 49.6175 -2.8622 97° East 526 605 37,000  Climbing FlightAware ADS-B
10:36PM 49.6119 -2.7981 97° East 490 564 35,500  Descending FlightAware UK
10:36PM 49.6078 -2.7497 97° East 528 608 37,000  Climbing FlightAware ADS-B
10:37PM 49.6023 -2.6875 97° East 492 566 35,500  Descending FlightAware UK
10:37PM 49.6026 -2.6884 97° East 528 608 37,000  Climbing FlightAware ADS-B
10:37PM 49.5965 -2.6199 97° East 492 566 35,500 180 Descending FlightAware UK
10:37PM 49.5932 -2.5816 97° East 527 606 37,100 4,500 Climbing FlightAware ADS-B
10:37PM 49.5902 -2.5467 98° East 527 606 37,000 -3,840 Descending FlightAware ADS-B
10:38PM 49.5846 -2.4849 98° East 490 564 35,500  Descending FlightAware UK
10:38PM 49.5811 -2.4436 98° East 527 606 37,000 3,720 Climbing FlightAware ADS-B
10:38PM 49.5770 -2.3976 98° East 527 606 37,000 -3,000 Level FlightAware ADS-B
10:38PM 49.5706 -2.3293 98° East 492 566 35,500  Descending FlightAware UK
10:38PM 49.5683 -2.3006 98° East 527 606 37,000 6,900 Climbing FlightAware ADS-B
10:39PM 49.5666 -2.2825 98° East 527 606 37,000 -3,960 Level FlightAware ADS-B
10:39PM 49.5606 -2.2177 98° East 488 562 35,500  Descending FlightAware UK
10:39PM 49.5583 -2.1895 98° East 527 606 37,000 6,420 Climbing FlightAware ADS-B
10:39PM 49.5561 -2.1654 98° East 527 606 37,000 -3,960 Level FlightAware ADS-B
10:39PM 49.5504 -2.1058 98° East 490 564 35,500  Descending FlightAware UK
10:39PM 49.5480 -2.0776 98° East 527 606 37,000 5,580 Climbing FlightAware ADS-B
10:40PM 49.5452 -2.0473 98° East 527 606 37,000 -3,120 Level FlightAware ADS-B
10:40PM 49.5383 -1.9724 98° East 490 564 35,500  Descending FlightAware UK
10:40PM 49.5375 -1.9643 98° East 527 606 37,000  Climbing FlightAware ADS-B
10:40PM 49.5319 -1.9050 98° East 490 564 35,500  Descending FlightAware UK
10:40PM 49.5309 -1.8933 98° East 527 606 37,000 6,420 Climbing FlightAware ADS-B
10:40PM 49.5271 -1.8534 98° East 527 606 37,000 -3,360 Level FlightAware ADS-B
10:41PM 49.5215 -1.7946 98° East 492 566 35,500  Descending FlightAware UK
10:41PM 49.5182 -1.7592 98° East 526 605 37,000 6,420 Climbing FlightAware ADS-B
10:41PM 49.5165 -1.7410 98° East 527 606 37,000 -4,500 Level FlightAware ADS-B
10:41PM 49.5109 -1.6843 98° East 494 568 35,500  Descending FlightAware UK
10:41PM 49.5070 -1.6416 98° East 525 604 37,000 6,360 Climbing FlightAware ADS-B
10:42PM 49.5058 -1.6294 99° East 525 604 37,100 -4,740 Climbing FlightAware ADS-B
10:42PM 49.5002 -1.5724 99° East 484 557 35,500  Descending FlightAware UK
10:42PM 49.4957 -1.5243 99° East 524 603 37,100 5,580 Climbing FlightAware ADS-B
10:42PM 49.4946 -1.5137 99° East 524 603 37,000 -4,200 Descending FlightAware ADS-B
10:42PM 49.4874 -1.4408 99° East 486 559 35,500  Descending FlightAware UK
10:42PM 49.4847 -1.4117 99° East 525 604 37,000 9,000 Climbing FlightAware ADS-B
10:43PM 49.4838 -1.4021 98° East 526 605 37,000 -4,140 Level FlightAware ADS-B
10:43PM 49.4764 -1.3299 98° East 490 564 35,500  Descending FlightAware UK
10:43PM 49.4711 -1.2740 98° East 526 605 37,000 6,000 Climbing FlightAware ADS-B
10:43PM 49.4707 -1.2703 99° East 526 605 37,100 -4,320 Climbing FlightAware ADS-B
10:43PM 49.4635 -1.1988 99° East 490 564 35,500 -180 Descending FlightAware UK
10:44PM 49.4584 -1.1468 99° East 527 606 37,000 5,280 Climbing FlightAware ADS-B
10:44PM 49.4573 -1.1362 99° East 527 606 37,000 -5,220 Level FlightAware ADS-B
10:44PM 49.4501 -1.0653 99° East 490 564 35,100 -1,740 Descending FlightAware UK
10:44PM 49.4465 -1.0300 99° East 535 616 36,200 1,980 Climbing FlightAware ADS-B
10:44PM 49.4421 -0.9864 99° East 532 612 35,800 -2,340 Descending FlightAware ADS-B
10:45PM 49.4350 -0.9163 99° East 528 608 35,000 -4,800 Descending FlightAware ADS-B
10:45PM 49.4272 -0.8428 99° East 480 552 32,700 -2,280 Descending FlightAware UK
10:45PM 49.4258 -0.8278 99° East 523 602 34,100 7,200 Climbing FlightAware ADS-B
10:45PM 49.4235 -0.8053 99° East 521 600 33,900 -5,820 Descending FlightAware ADS-B
10:46PM 49.4159 -0.7343 99° East 472 543 31,600 -2,220 Descending FlightAware UK
10:46PM 49.4122 -0.6969 99° East 512 589 32,800 -2,400 Climbing FlightAware ADS-B
10:46PM 49.4048 -0.6259 99° East 476 548 30,400 -1,800 Descending FlightAware UK
10:46PM 49.4017 -0.5784 99° East 507 583 31,800 -1,020 Climbing FlightAware ADS-B
10:47PM 49.3976 -0.5199 99° East 474 545 29,900 -1,200 Descending FlightAware UK
10:47PM 49.3952 -0.4718 99° East 499 574 31,200 -1,200 Climbing FlightAware ADS-B
10:47PM 49.3918 -0.4128 99° East 464 534 29,300 -1,560 Descending FlightAware UK
10:47PM 49.3900 -0.3614 99° East 488 562 30,400 -1,440 Climbing FlightAware ADS-B
10:48PM 49.3876 -0.3103 99° East 452 520 28,600 -1,200 Descending FlightAware UK
10:48PM 49.3860 -0.2583 99° East 478 550 29,800 -1,500 Climbing FlightAware ADS-B
10:48PM 49.3831 -0.1900 99° East 442 509 27,700 -1,560 Descending FlightAware UK
10:48PM 49.3821 -0.1547 99° East 469 540 29,000 -1,620 Climbing FlightAware ADS-B
10:49PM 49.3794 -0.0898 99° East 436 502 26,900 -1,800 Descending FlightAware UK
10:49PM 49.3782 -0.0536 99° East 465 535 28,100 -1,800 Climbing FlightAware ADS-B
10:49PM 49.3758 0.0086 99° East 428 493 26,000 -1,980 Descending FlightAware UK
10:49PM 49.3743 0.0500 99° East 460 529 27,100 -1,980 Climbing FlightAware ADS-B
10:50PM 49.3720 0.1072 99° East 422 486 25,000 -1,980 Descending FlightAware UK
10:50PM 49.3705 0.1478 99° East 457 526 26,100 -2,040 Climbing FlightAware ADS-B
10:50PM 49.3680 0.2044 99° East 418 481 24,000 -1,620 Descending FlightAware UK
10:50PM 49.3664 0.2460 99° East 452 520 25,300 -1,260 Climbing FlightAware ADS-B
10:51PM 49.3640 0.2985 99° East 416 479 23,400 -1,560 Descending FlightAware UK
10:51PM 49.3624 0.3421 99° East 445 512 24,500 -1,800 Climbing FlightAware ADS-B
10:51PM 49.3600 0.3931 99° East 414 476 22,500 -1,620 Descending FlightAware UK
10:51PM 49.3581 0.4363 99° East 437 503 23,700 -1,440 Climbing FlightAware ADS-B
10:52PM 49.3558 0.4854 99° East 408 470 21,800 -1,440 Descending FlightAware UK
10:52PM 49.3541 0.5288 99° East 429 494 23,000 -1,620 Climbing FlightAware ADS-B
10:52PM 49.3518 0.5769 99° East 400 460 21,000 -1,800 Descending FlightAware UK
10:52PM 49.3499 0.6196 99° East 423 487 22,100 -1,800 Climbing FlightAware ADS-B
10:53PM 49.3475 0.6671 99° East 394 453 20,100 -4,260 Descending FlightAware UK
10:53PM 49.3450 0.7193 94° East 390 449 19,700 2,700 Descending FlightAware UK
10:53PM 49.3450 0.7250 94° East 416 479 21,100 4,680 Climbing FlightAware
10:53PM 49.3433 0.7606 94° East 414 476 20,800 -5,340 Descending FlightAware ADS-B
10:53PM 49.3410 0.8076 94° East 388 447 18,800 -1,560 Descending FlightAware UK
10:54PM 49.3391 0.8493 94° East 410 472 20,000 -1,500 Climbing FlightAware ADS-B
10:54PM 49.3360 0.9105 94° East 384 442 17,900 -1,620 Descending FlightAware UK
10:54PM 49.3349 0.9355 94° East 406 467 19,200 -1,800 Climbing FlightAware ADS-B
10:54PM 49.3327 0.9799 94° East 382 440 17,200 -1,620 Descending FlightAware UK
10:55PM 49.3306 1.0212 94° East 400 460 18,400 -1,500 Climbing FlightAware ADS-B
10:55PM 49.3276 1.0809 94° East 374 430 16,300 -1,620 Descending FlightAware UK
10:55PM 49.3263 1.1062 94° East 395 455 17,600 -1,500 Climbing FlightAware ADS-B
10:55PM 49.3242 1.1469 94° East 372 428 15,700 -4,200 Descending FlightAware UK
10:56PM 49.3217 1.1970 94° East 370 426 15,300 3,660 Descending FlightAware UK
10:56PM 49.3217 1.1979 94° East 390 449 16,800 -1,680 Climbing FlightAware ADS-B
10:56PM 49.3191 1.2464 94° East 368 423 14,800 -1,500 Descending FlightAware UK
10:56PM 49.3180 1.2725 94° East 384 442 16,100 -1,440 Climbing FlightAware ADS-B
10:57PM 49.3149 1.3280 94° East 368 423 14,100 -1,200 Descending FlightAware UK
10:57PM 49.3138 1.3533 94° East 376 433 15,500 -1,200 Climbing FlightAware ADS-B
10:57PM 49.3110 1.4077 94° East 362 417 13,500 -1,440 Descending FlightAware UK
10:57PM 49.3097 1.4320 94° East 369 425 14,800 -1,620 Climbing FlightAware ADS-B
10:58PM 49.3069 1.4848 94° East 354 407 12,700 -1,500 Descending FlightAware UK
10:58PM 49.3052 1.5151 94° East 367 422 14,000 -1,440 Climbing FlightAware ADS-B
10:58PM 49.3026 1.5622 94° East 346 398 12,000 -1,440 Descending FlightAware UK
10:58PM 49.3011 1.5917 94° East 362 417 13,300 -1,440 Climbing FlightAware ADS-B
10:59PM 49.2983 1.6377 94° East 352 405 11,300 -1,380 Descending FlightAware UK
10:59PM 49.2967 1.6706 94° East 354 407 12,600 -1,260 Climbing FlightAware ADS-B
10:59PM 49.2941 1.7120 94° East 344 396 10,700 -1,200 Descending FlightAware UK
10:59PM 49.2924 1.7460 94° East 349 402 12,000 -1,380 Climbing FlightAware ADS-B
11:00PM 49.2901 1.7859 94° East 336 387 10,000 -1,620 Descending FlightAware UK
11:00PM 49.2887 1.8199 94° East 347 399 11,200 -1,200 Climbing FlightAware ADS-B
11:00PM 49.2867 1.8600 94° East 338 389 9,400 -420 Descending FlightAware UK
11:00PM 49.2857 1.8927 94° East 344 396 11,000  Climbing FlightAware ADS-B
11:01PM 49.2837 1.9331 94° East 336 387 9,400  Descending FlightAware UK
11:01PM 49.2823 1.9673 94° East 346 398 11,000 180 Climbing FlightAware ADS-B
11:01PM 49.2801 2.0056 94° East 334 384 9,500  Descending FlightAware UK
11:01PM 49.2789 2.0407 94° East 346 398 11,000  Climbing FlightAware ADS-B
11:02PM 49.2772 2.0788 94° East 334 384 9,500  Descending FlightAware UK
11:02PM 49.2754 2.1155 94° East 346 398 11,000  Climbing FlightAware ADS-B
11:02PM 49.2731 2.1662 94° East 336 387 9,500 -240 Descending FlightAware UK
11:02PM 49.2718 2.1888 94° East 345 397 10,900 1,500 Climbing FlightAware ADS-B
11:03PM 49.2681 2.2617 94° East 341 392 10,500 -960 Descending FlightAware ADS-B
11:03PM 49.2649 2.3278 94° East 328 377 10,000 -840 Descending FlightAware ADS-B
11:04PM 49.2632 2.3621 94° East 318 366 9,900 -420 Descending FlightAware ADS-B
11:04PM 49.2614 2.3965 95° East 307 353 9,800 -600 Descending FlightAware ADS-B
11:04PM 49.2598 2.4286 94° East 298 343 9,600 -960 Descending FlightAware ADS-B
11:04PM 49.2580 2.4633 95° East 294 338 9,300 -1,200 Descending FlightAware ADS-B
11:05PM 49.2559 2.5021 95° East 290 334 8,900 -1,380 Descending FlightAware ADS-B
11:05PM 49.2547 2.5173 97° East 289 333 8,700 -1,200 Descending FlightAware ADS-B
11:05PM 49.2523 2.5416 99° East 287 330 8,500 -1,380 Descending FlightAware ADS-B
11:05PM 49.2487 2.5718 100° East 287 330 8,100 -1,320 Descending FlightAware ADS-B
11:06PM 49.2448 2.6057 100° East 288 331 7,800 -1,140 Descending FlightAware ADS-B
11:06PM 49.2432 2.6163 103° East 287 330 7,700 -1,380 Descending FlightAware ADS-B
11:06PM 49.2418 2.6240 105° East 286 329 7,600 -1,380 Descending FlightAware ADS-B
11:06PM 49.2398 2.6326 110° East 285 328 7,500 -1,140 Descending FlightAware ADS-B
11:06PM 49.2309 2.6647 113° Southeast 283 326 7,200 -1,140 Descending FlightAware ADS-B
11:06PM 49.2230 2.6925 113° Southeast 282 325 6,900 -1,200 Descending FlightAware ADS-B
11:07PM 49.2149 2.7196 115° Southeast 280 322 6,600 -1,200 Descending FlightAware ADS-B
11:07PM 49.1977 2.7768 115° Southeast 279 321 6,000 -1,200 Descending FlightAware ADS-B
11:07PM 49.1896 2.8035 115° Southeast 277 319 5,700 -1,200 Descending FlightAware ADS-B
11:08PM 49.1810 2.8312 115° Southeast 276 318 5,400 -900 Descending FlightAware ADS-B
11:08PM 49.1789 2.8376 117° Southeast 275 316 5,400 -780 Level FlightAware ADS-B
11:08PM 49.1761 2.8441 123° Southeast 274 315 5,300 -1,740 Descending FlightAware ADS-B
11:08PM 49.1737 2.8488 128° Southeast 272 313 5,200 -1,020 Descending FlightAware ADS-B
11:08PM 49.1707 2.8534 135° Southeast 270 311 5,200 -1,020 Level FlightAware ADS-B
11:08PM 49.1678 2.8575 138° Southeast 267 307 5,100 -720 Descending FlightAware ADS-B
11:08PM 49.1620 2.8642 143° Southeast 263 303 5,100 -300 Level FlightAware ADS-B
11:08PM 49.1469 2.8802 145° Southeast 255 293 5,000 -420 Descending FlightAware ADS-B
11:08PM 49.1339 2.8942 145° Southeast 247 284 4,900 -480 Descending FlightAware ADS-B
11:09PM 49.1237 2.9052 145° Southeast 242 278 4,800 -480 Descending FlightAware ADS-B
11:09PM 49.1100 2.9202 144° Southeast 237 273 4,700 -720 Descending FlightAware ADS-B
11:09PM 49.0989 2.9322 145° Southeast 235 270 4,500 -1,140 Descending FlightAware ADS-B
11:09PM 49.0953 2.9356 148° Southeast 233 268 4,400 -780 Descending FlightAware ADS-B
11:09PM 49.0914 2.9383 155° Southeast 232 267 4,400 -720 Level FlightAware ADS-B
11:09PM 49.0872 2.9404 162° South 231 266 4,300 -1,500 Descending FlightAware ADS-B
11:09PM 49.0839 2.9415 169° South 231 266 4,200 -900 Descending FlightAware ADS-B
11:09PM 49.0796 2.9424 172° South 230 265 4,200 -360 Level FlightAware ADS-B
11:10PM 49.0636 2.9445 175° South 227 261 4,100 -420 Descending FlightAware ADS-B
11:10PM 49.0478 2.9465 175° South 225 259 4,000 -360 Descending FlightAware ADS-B
11:10PM 49.0444 2.9468 177° South 224 258 4,000  Level FlightAware ADS-B
11:10PM 49.0404 2.9468 180° South 224 258 4,000  Level FlightAware ADS-B
11:10PM 49.0369 2.9462 186° South 223 257 4,000  Level FlightAware ADS-B
11:10PM 49.0333 2.9449 194° South 222 255 4,000  Level FlightAware ADS-B
11:10PM 49.0304 2.9431 202° Southwest 222 255 4,000  Level FlightAware ADS-B
11:10PM 49.0269 2.9402 209° Southwest 221 254 4,000  Level FlightAware ADS-B
11:10PM 49.0239 2.9367 217° Southwest 221 254 4,000  Level FlightAware ADS-B
11:10PM 49.0210 2.9320 227° Southwest 221 254 4,000 720 Level FlightAware ADS-B
11:10PM 49.0187 2.9267 237° Southwest 221 254 4,100 720 Climbing FlightAware ADS-B
11:11PM 49.0173 2.9216 247° West 222 255 4,100  Level FlightAware ADS-B
11:11PM 49.0164 2.9162 256° West 220 253 4,100  Level FlightAware ADS-B
11:11PM 49.0153 2.9055 261° West 212 244 4,100  Level FlightAware ADS-B
11:11PM 49.0144 2.8959 262° West 203 234 4,100 -480 Level FlightAware ADS-B
11:11PM 49.0136 2.8864 263° West 198 228 4,000 -780 Descending FlightAware ADS-B
11:11PM 49.0128 2.8743 264° West 194 223 3,900 -1,020 Descending FlightAware ADS-B
11:11PM 49.0115 2.8543 264° West 190 219 3,600 -1,020 Descending FlightAware ADS-B
11:12PM 49.0110 2.8420 266° West 186 214 3,500 -1,020 Descending FlightAware ADS-B
11:12PM 49.0101 2.8226 266° West 183 211 3,200 -960 Descending FlightAware ADS-B
11:12PM 49.0094 2.8092 265° West 183 211 3,100 -900 Descending FlightAware ADS-B
11:12PM 49.0082 2.7882 265° West 184 212 2,800 -1,080 Descending FlightAware ADS-B
11:12PM 49.0074 2.7729 265° West 185 213 2,600 -900 Descending FlightAware ADS-B
11:13PM 49.0068 2.7621 265° West 186 214 2,500 -1,080 Descending FlightAware ADS-B
11:13PM 49.0062 2.7512 265° West 186 214 2,300 -1,020 Descending FlightAware ADS-B
11:13PM 49.0053 2.7320 266° West 178 205 2,100 -840 Descending FlightAware ADS-B
11:13PM 49.0043 2.7136 265° West 172 198 1,900 -960 Descending FlightAware ADS-B
11:14PM 49.0028 2.6861 265° West 168 193 1,500 -960 Descending FlightAware ADS-B
11:14PM 49.0021 2.6714 266° West 140 161 1,300 -900 Descending FlightAware ADS-B
11:14PM 49.0018 2.6654 266° West 139 160 1,200 -420 Descending FlightAware ADS-B
11:14PM 49.0013 2.6567 265° West 139 160 1,200 -360 Level FlightAware ADS-B
11:14PM 49.0008 2.6487 265° West 141 162 1,100 -840 Descending FlightAware ADS-B
11:14PM 49.0000 2.6353 265° West 144 166 900 -900 Descending FlightAware ADS-B
11:15PM 48.9993 2.6207 266° West 150 173 700 -780 Descending FlightAware ADS-B
11:15PM 48.9984 2.6033 265° West 154 177 500 -720 Descending FlightAware ADS-B
11:24PM 49.0128 2.5500 102° East  Level Estimated
11:25PM 49.0128 2.5500 102° East  Level Estimated
11:26PM 49.0128 2.5500 102° East  Level Estimated
11:27PM 49.0128 2.5500 102° East  Level Estimated
11:28PM 49.0128 2.5500 102° East  Level Estimated
11:29PM 49.0128 2.5500 102° East  Level Estimated
11:30PM 49.0128 2.5500 102° East  Level Estimated
11:31PM 49.0128 2.5500 102° East  Level Estimated
11:32PM 49.0128 2.5500 102° East  Level Estimated